Lubec, Maine
Current Conditions -  °F | °C
As of 4:00 AM on Monday 22 Dec 2014 (Local Time) from CYSJ Reporting Station
Broken Clouds Broken Clouds  
Wind Chill: 19°   Ceiling: 3400
Heat Index: 27°   Visibility: 15mi
Dew Point: 23°   Wind: 7mph
Humidity: 86%   Direction: 10°N
Pressure: 30.41"   Gusts: NA
Location:  44.86°N, 66.99°W
Report Text: CYSJ 220900Z 01006KT 15SM BKN034 M03/M05 A3041 RMK SC7 SLP305
Loading
Personal Weather Stations






























Interactive Weather Map New forecast layout! Learn more

10-Day Weather Forecast

Advertisements
Track Severe Weather on mobile